Time;durP1;ratioP1;P1;durP2;ratioP2;P2;SDS_P1;SDS_P2;PMS_P1;PMS_P2;Temp;Humidity;BMP_temperature;BMP_pressure;BME280_temperature;BME280_humidity;BME280_pressure;Samples;Min_cycle;Max_cycle;Signal;HPM_P1;HPM_P2
2023/07/15 00:01:18;;;;;;;2.17;0.80;;;;;;;19.71;100.00;99904.88;6099021;23;20013;-93
2023/07/15 00:03:44;;;;;;;0.90;0.90;;;;;;;19.64;100.00;99896.13;6098956;23;20028;-92
2023/07/15 00:06:09;;;;;;;0.85;0.55;;;;;;;19.51;100.00;99885.31;6100453;23;20017;-92
2023/07/15 00:08:35;;;;;;;0.28;0.28;;;;;;;19.57;100.00;99896.63;6124639;23;20018;-93
2023/07/15 00:11:01;;;;;;;4.22;1.60;;;;;;;19.41;100.00;99884.69;6099589;23;20013;-93
2023/07/15 00:13:27;;;;;;;0.43;0.43;;;;;;;19.47;100.00;99902.44;6099681;23;20021;-93
2023/07/15 00:15:57;;;;;;;1.17;0.98;;;;;;;19.53;100.00;99894.78;6099593;23;20013;-92
2023/07/15 00:18:23;;;;;;;0.70;0.65;;;;;;;19.56;100.00;99898.66;6100556;23;20017;-92
2023/07/15 00:20:49;;;;;;;0.47;0.47;;;;;;;19.60;100.00;99895.59;6124683;23;20014;-92
2023/07/15 00:23:23;;;;;;;0.82;0.55;;;;;;;19.62;100.00;99907.09;6075870;23;20438;-92
2023/07/15 00:25:50;;;;;;;1.05;1.00;;;;;;;19.60;100.00;99906.84;6100704;23;20465;-93
2023/07/15 00:28:17;;;;;;;1.10;0.73;;;;;;;19.68;100.00;99908.69;6123522;23;20024;-93
2023/07/15 00:30:44;;;;;;;0.75;0.75;;;;;;;19.49;100.00;99868.19;6099533;23;20024;-92
2023/07/15 00:33:14;;;;;;;0.57;0.57;;;;;;;19.48;100.00;99870.22;6123618;23;20017;-93
2023/07/15 00:35:40;;;;;;;0.30;0.30;;;;;;;19.58;100.00;99881.25;6100683;23;20020;-93
2023/07/15 00:38:06;;;;;;;1.63;1.05;;;;;;;19.34;100.00;99854.25;6099968;23;20018;-93
2023/07/15 00:40:46;;;;;;;0.80;0.52;;;;;;;19.41;100.00;99879.06;6100063;23;20022;-92
2023/07/15 00:43:50;;;;;;;1.05;0.80;;;;;;;19.48;100.00;99895.53;6099828;23;20024;-92
2023/07/15 00:46:18;;;;;;;0.30;0.30;;;;;;;19.43;100.00;99892.69;6099510;23;20041;-91
2023/07/15 00:48:52;;;;;;;0.13;0.13;;;;;;;19.31;100.00;99886.19;6123407;23;20023;-93
2023/07/15 00:51:18;;;;;;;0.28;0.28;;;;;;;19.25;100.00;99882.53;6099845;23;20018;-92
2023/07/15 00:53:44;;;;;;;0.35;0.35;;;;;;;19.28;100.00;99878.75;6099915;23;20347;-93
2023/07/15 00:56:09;;;;;;;0.43;0.43;;;;;;;19.29;100.00;99891.53;6076110;23;20005;-94
2023/07/15 00:58:35;;;;;;;0.45;0.45;;;;;;;19.10;100.00;99873.50;6099364;23;20389;-93
2023/07/15 01:03:44;;;;;;;1.55;1.17;;;;;;;19.31;100.00;99874.94;6115932;23;20021;-93
2023/07/15 01:06:11;;;;;;;0.40;0.40;;;;;;;19.30;100.00;99895.09;6073718;23;20022;-93
2023/07/15 01:08:37;;;;;;;1.08;0.95;;;;;;;19.14;100.00;99868.41;6076783;23;20041;-94
2023/07/15 01:11:06;;;;;;;0.28;0.28;;;;;;;19.12;100.00;99862.53;6077833;23;20013;-91
2023/07/15 01:13:33;;;;;;;0.43;0.43;;;;;;;19.15;100.00;99883.25;6078553;23;20021;-93
2023/07/15 01:15:58;;;;;;;0.80;0.77;;;;;;;19.17;100.00;99889.91;6077829;23;20009;-92
2023/07/15 01:18:24;;;;;;;0.32;0.32;;;;;;;19.05;100.00;99874.22;6078540;23;20021;-93
2023/07/15 01:20:50;;;;;;;0.38;0.38;;;;;;;19.02;100.00;99870.38;6076339;23;20018;-91
2023/07/15 01:23:16;;;;;;;0.20;0.20;;;;;;;19.10;100.00;99882.69;6077627;23;20406;-91
2023/07/15 01:25:43;;;;;;;0.55;0.55;;;;;;;19.02;100.00;99864.75;6101713;23;20039;-91
2023/07/15 01:28:09;;;;;;;0.63;0.55;;;;;;;19.07;100.00;99882.94;6078244;23;20343;-91
2023/07/15 01:30:35;;;;;;;0.52;0.52;;;;;;;18.87;100.00;99857.72;6101948;23;20388;-92
2023/07/15 01:33:01;;;;;;;1.40;0.38;;;;;;;18.96;100.00;99866.00;6076860;23;20057;-91
2023/07/15 01:35:26;;;;;;;0.73;0.70;;;;;;;18.85;100.00;99860.25;6076991;23;20055;-92
2023/07/15 01:37:52;;;;;;;0.40;0.40;;;;;;;18.74;100.00;99846.09;6076547;23;20429;-92
2023/07/15 01:40:18;;;;;;;1.20;0.95;;;;;;;18.73;100.00;99864.22;6075763;23;20090;-90
2023/07/15 01:42:44;;;;;;;1.52;0.93;;;;;;;18.64;100.00;99840.66;6077906;23;20036;-91
2023/07/15 01:45:10;;;;;;;1.52;0.65;;;;;;;18.67;100.00;99852.97;6077882;23;20038;-90
2023/07/15 01:47:36;;;;;;;1.35;0.40;;;;;;;18.69;100.00;99846.81;6077005;23;20134;-93
2023/07/15 01:50:03;;;;;;;0.20;0.20;;;;;;;18.75;100.00;99862.47;6100186;23;20076;-91
2023/07/15 01:52:29;;;;;;;0.40;0.40;;;;;;;18.69;100.00;99844.03;6101516;23;20132;-91
2023/07/15 01:54:57;;;;;;;1.35;0.88;;;;;;;18.69;100.00;99841.22;6077943;23;20037;-90
2023/07/15 01:57:26;;;;;;;1.67;1.42;;;;;;;18.71;100.00;99845.06;6077765;23;20494;-90
2023/07/15 01:59:57;;;;;;;0.50;0.50;;;;;;;18.80;100.00;99855.38;6101981;23;20009;-90
2023/07/15 02:02:27;;;;;;;1.15;0.98;;;;;;;18.80;100.00;99846.94;6095868;23;20014;-91
2023/07/15 02:04:54;;;;;;;1.30;1.20;;;;;;;18.81;100.00;99854.09;6063110;23;20284;-91
2023/07/15 02:07:19;;;;;;;0.80;0.65;;;;;;;18.73;100.00;99841.75;6090880;23;20445;-92
2023/07/15 02:09:45;;;;;;;0.95;0.70;;;;;;;18.73;100.00;99842.53;6020324;23;20022;-91
2023/07/15 02:12:11;;;;;;;1.20;1.10;;;;;;;18.64;100.00;99835.03;6020044;23;20014;-90
2023/07/15 02:14:39;;;;;;;2.83;1.00;;;;;;;18.81;100.00;99868.91;6067297;23;20010;-94
2023/07/15 02:17:06;;;;;;;0.60;0.60;;;;;;;18.76;100.00;99863.25;6020783;23;20042;-92
2023/07/15 02:19:32;;;;;;;1.45;0.85;;;;;;;18.65;100.00;99847.06;6019015;23;20026;-91
2023/07/15 02:21:58;;;;;;;0.47;0.47;;;;;;;18.62;100.00;99831.97;6020419;23;20084;-93
2023/07/15 02:24:24;;;;;;;1.30;1.00;;;;;;;18.68;100.00;99848.88;6020292;23;20070;-90
2023/07/15 02:26:49;;;;;;;0.45;0.45;;;;;;;18.79;100.00;99859.44;6068001;23;20018;-91
2023/07/15 02:29:15;;;;;;;1.25;0.63;;;;;;;18.64;100.00;99846.28;6018913;23;20116;-91
2023/07/15 02:31:44;;;;;;;0.90;0.90;;;;;;;18.81;100.00;99865.31;6091237;23;20025;-91
2023/07/15 02:34:10;;;;;;;0.98;0.70;;;;;;;18.74;100.00;99860.16;6024595;23;20078;-92
2023/07/15 02:36:36;;;;;;;0.93;0.75;;;;;;;18.73;100.00;99865.00;6097303;23;20713;-92
2023/07/15 02:39:04;;;;;;;0.63;0.63;;;;;;;18.59;100.00;99847.03;6047229;23;20050;-92
2023/07/15 02:41:29;;;;;;;1.85;0.60;;;;;;;18.56;100.00;99850.81;6047971;23;20011;-93
2023/07/15 02:43:55;;;;;;;0.17;0.17;;;;;;;18.51;100.00;99848.69;6071037;23;20013;-93
2023/07/15 02:46:20;;;;;;;0.98;0.98;;;;;;;18.49;100.00;99856.84;6070542;23;20018;-92
2023/07/15 02:48:47;;;;;;;0.73;0.73;;;;;;;18.47;100.00;99853.00;6093792;23;20512;-93
2023/07/15 02:51:13;;;;;;;2.60;1.33;;;;;;;18.58;100.00;99865.13;6021529;23;20042;-93
2023/07/15 02:53:39;;;;;;;1.00;1.00;;;;;;;18.59;100.00;99872.31;6070253;23;20014;-93
2023/07/15 02:56:05;;;;;;;2.05;0.98;;;;;;;18.41;100.00;99838.88;6022574;23;20006;-93
2023/07/15 02:58:31;;;;;;;0.77;0.77;;;;;;;18.39;100.00;99847.06;6022058;23;20096;-92
2023/07/15 03:00:57;;;;;;;0.65;0.65;;;;;;;18.37;100.00;99849.56;6093856;23;20035;-94
2023/07/15 03:03:23;;;;;;;0.73;0.73;;;;;;;18.41;100.00;99861.34;6070050;23;20015;-94
2023/07/15 03:05:50;;;;;;;1.52;1.02;;;;;;;18.27;100.00;99845.41;6120000;23;20026;-95
2023/07/15 03:08:16;;;;;;;1.92;1.40;;;;;;;18.24;100.00;99851.22;6097772;23;20025;-94
2023/07/15 03:10:45;;;;;;;1.05;0.95;;;;;;;18.16;100.00;99840.41;6098742;23;20501;-94
2023/07/15 03:13:11;;;;;;;1.65;1.40;;;;;;;18.06;100.00;99829.84;6073076;23;20010;-93
2023/07/15 03:15:37;;;;;;;0.45;0.45;;;;;;;18.06;100.00;99824.22;6074171;23;20356;-94
2023/07/15 03:18:03;;;;;;;0.55;0.55;;;;;;;18.17;100.00;99850.38;6097818;23;20088;-93
2023/07/15 03:20:30;;;;;;;0.57;0.57;;;;;;;18.17;100.00;99853.19;6048917;23;20021;-94
2023/07/15 03:22:55;;;;;;;0.90;0.55;;;;;;;18.14;100.00;99848.56;6050758;23;20020;-94
2023/07/15 03:25:22;;;;;;;0.85;0.85;;;;;;;18.02;100.00;99840.50;6099090;23;20033;-94
2023/07/15 03:27:48;;;;;;;0.38;0.32;;;;;;;18.16;100.00;99857.25;6097854;23;20492;-94
2023/07/15 03:30:14;;;;;;;0.68;0.68;;;;;;;18.06;100.00;99836.22;6098075;23;20545;-91
2023/07/15 03:32:41;;;;;;;0.68;0.43;;;;;;;18.13;100.00;99846.25;6094825;23;20073;-91
2023/07/15 03:35:12;;;;;;;0.40;0.40;;;;;;;18.07;100.00;99826.56;6094255;23;20021;-91
2023/07/15 03:37:42;;;;;;;0.70;0.70;;;;;;;18.16;100.00;99840.41;6048872;23;20021;-91
2023/07/15 03:40:10;;;;;;;0.22;0.10;;;;;;;18.21;100.00;99843.78;6071394;23;20029;-92
2023/07/15 03:42:35;;;;;;;1.40;1.30;;;;;;;18.27;100.00;99845.41;6072984;23;20085;-95
2023/07/15 03:45:02;;;;;;;0.43;0.43;;;;;;;18.25;100.00;99842.28;6097802;23;20033;-93
2023/07/15 03:47:27;;;;;;;0.63;0.63;;;;;;;18.26;100.00;99845.88;6048971;23;20002;-92
2023/07/15 03:49:53;;;;;;;2.30;1.52;;;;;;;18.37;100.00;99855.19;6073445;23;20376;-93
2023/07/15 03:52:19;;;;;;;0.75;0.75;;;;;;;18.17;100.00;99829.97;6097178;23;20041;-93
2023/07/15 03:54:44;;;;;;;0.57;0.57;;;;;;;18.35;100.00;99857.72;6050116;23;20067;-93
2023/07/15 03:57:10;;;;;;;0.65;0.65;;;;;;;18.41;100.00;99866.19;6074412;23;20014;-94
2023/07/15 03:59:36;;;;;;;1.35;1.25;;;;;;;18.33;100.00;99849.00;6098499;23;20105;-93
2023/07/15 04:02:02;;;;;;;1.58;1.25;;;;;;;18.49;100.00;99873.69;6073675;23;20053;-95
2023/07/15 04:04:28;;;;;;;0.30;0.30;;;;;;;18.37;100.00;99854.41;6123003;23;20044;-93
2023/07/15 04:06:54;;;;;;;1.13;0.73;;;;;;;18.40;100.00;99859.06;6098693;23;20449;-94
2023/07/15 04:09:21;;;;;;;0.90;0.82;;;;;;;18.63;100.00;99884.09;6073706;23;20114;-93
2023/07/15 04:11:47;;;;;;;1.10;0.85;;;;;;;18.57;100.00;99857.19;6094872;23;20343;-91
2023/07/15 04:14:13;;;;;;;14.23;1.50;;;;;;;18.60;100.00;99868.19;6071176;23;20192;-91
2023/07/15 04:16:39;;;;;;;0.70;0.60;;;;;;;18.54;100.00;99846.97;6071153;23;20156;-91
2023/07/15 04:19:04;;;;;;;0.82;0.63;;;;;;;18.58;100.00;99848.28;6094031;23;20014;-91
2023/07/15 04:21:30;;;;;;;2.33;1.40;;;;;;;18.70;100.00;99860.38;6094467;23;20352;-91
2023/07/15 04:23:55;;;;;;;1.00;0.90;;;;;;;18.71;100.00;99849.94;6095114;23;20113;-91
2023/07/15 04:26:25;;;;;;;0.43;0.40;;;;;;;18.81;100.00;99854.09;6095077;23;20565;-91
2023/07/15 04:28:52;;;;;;;0.90;0.90;;;;;;;18.73;100.00;99841.75;6076875;23;20013;-96
2023/07/15 04:31:18;;;;;;;1.05;1.00;;;;;;;18.91;100.00;99861.84;6099660;23;20064;-94
2023/07/15 04:33:45;;;;;;;0.43;0.43;;;;;;;19.00;100.00;99878.56;6098782;23;20492;-95
2023/07/15 04:36:11;;;;;;;2.20;1.30;;;;;;;18.88;100.00;99850.84;6098999;23;20041;-94
2023/07/15 04:38:37;;;;;;;0.77;0.70;;;;;;;19.11;100.00;99872.22;6051055;23;20018;-91
2023/07/15 04:41:02;;;;;;;1.25;0.80;;;;;;;19.15;100.00;99889.66;6099305;23;20002;-94
2023/07/15 04:43:28;;;;;;;1.40;0.93;;;;;;;19.12;100.00;99879.41;6097489;23;20092;-95
2023/07/15 04:45:54;;;;;;;1.50;0.93;;;;;;;19.12;100.00;99868.16;6096758;23;20021;-95
2023/07/15 04:48:19;;;;;;;1.10;1.05;;;;;;;19.10;100.00;99865.06;6072786;23;20018;-94
2023/07/15 04:50:45;;;;;;;1.02;0.50;;;;;;;19.17;100.00;99875.84;6097804;23;20018;-94
2023/07/15 04:53:11;;;;;;;0.65;0.65;;;;;;;19.23;100.00;99885.09;6097539;23;20440;-95
2023/07/15 04:55:37;;;;;;;0.70;0.70;;;;;;;19.24;100.00;99888.69;6122140;23;20010;-94
2023/07/15 04:58:03;;;;;;;1.35;1.25;;;;;;;19.31;100.00;99897.44;6073081;23;20077;-94
2023/07/15 05:00:29;;;;;;;1.27;1.05;;;;;;;19.11;100.00;99877.84;6072219;23;20109;-94
2023/07/15 05:02:55;;;;;;;0.50;0.50;;;;;;;19.17;100.00;99886.34;6096875;23;20041;-95
2023/07/15 05:05:20;;;;;;;1.00;0.95;;;;;;;19.40;100.00;99905.69;6097412;23;20021;-95
2023/07/15 05:07:49;;;;;;;0.77;0.77;;;;;;;19.36;100.00;99890.31;6073597;23;20507;-95
2023/07/15 05:10:15;;;;;;;0.38;0.38;;;;;;;19.36;100.00;99884.69;6096786;23;20018;-94
2023/07/15 05:12:41;;;;;;;1.65;1.10;;;;;;;19.43;100.00;99899.09;6073663;23;20022;-93
2023/07/15 05:15:07;;;;;;;1.55;0.85;;;;;;;19.48;100.00;99894.78;6097548;23;20451;-94
2023/07/15 05:17:33;;;;;;;1.05;0.98;;;;;;;19.43;100.00;99892.69;6097315;23;20010;-94
2023/07/15 05:19:59;;;;;;;0.82;0.82;;;;;;;19.58;100.00;99915.00;6096223;23;20017;-93
2023/07/15 05:22:24;;;;;;;1.13;0.95;;;;;;;19.53;100.00;99883.53;6073273;23;20073;-93
2023/07/15 05:24:50;;;;;;;1.13;1.02;;;;;;;19.69;100.00;99895.41;6097916;23;20036;-94
2023/07/15 05:27:15;;;;;;;0.75;0.75;;;;;;;19.80;100.00;99899.06;6072790;23;20036;-94
2023/07/15 05:29:41;;;;;;;0.63;0.63;;;;;;;19.81;100.00;99888.56;6049281;23;20018;-94
2023/07/15 05:32:09;;;;;;;1.48;1.25;;;;;;;19.93;100.00;99885.31;6047815;23;20018;-94
2023/07/15 05:34:35;;;;;;;1.48;1.38;;;;;;;20.10;100.00;99902.25;6118913;23;20093;-90
2023/07/15 05:37:03;;;;;;;2.92;1.80;;;;;;;20.30;100.00;99896.44;6119714;23;20085;-92
2023/07/15 05:39:31;;;;;;;0.77;0.73;;;;;;;20.42;100.00;99892.38;6070193;23;20036;-93
2023/07/15 05:41:57;;;;;;;0.85;0.85;;;;;;;20.56;100.00;99903.97;6092738;23;20021;-91
2023/07/15 05:44:22;;;;;;;1.25;1.15;;;;;;;20.85;100.00;99906.31;6119274;23;20013;-91
2023/07/15 05:46:48;;;;;;;0.93;0.88;;;;;;;20.96;100.00;99895.03;6119432;23;20006;-91
2023/07/15 05:49:13;;;;;;;0.93;0.88;;;;;;;21.21;100.00;99916.63;6117923;23;20005;-90
2023/07/15 05:51:39;;;;;;;0.82;0.82;;;;;;;21.28;100.00;99893.53;6094064;23;20050;-90
2023/07/15 05:54:04;;;;;;;1.33;1.17;;;;;;;21.60;100.00;99904.50;6117715;23;20443;-91
2023/07/15 05:56:33;;;;;;;0.98;0.77;;;;;;;21.88;100.00;99896.72;6093659;23;20006;-90
2023/07/15 05:58:58;;;;;;;0.50;0.50;;;;;;;22.10;100.00;99891.03;6120161;23;20314;-91
2023/07/15 06:01:26;;;;;;;1.13;1.02;;;;;;;22.43;100.00;99897.81;6117418;23;20488;-91
2023/07/15 06:03:52;;;;;;;0.95;0.95;;;;;;;22.83;100.00;99916.88;6117153;23;20037;-91
2023/07/15 06:06:18;;;;;;;0.85;0.85;;;;;;;23.06;100.00;99915.41;6119086;23;20014;-91
2023/07/15 06:08:45;;;;;;;1.52;1.38;;;;;;;23.12;100.00;99899.16;6087910;23;20068;-92
2023/07/15 06:11:11;;;;;;;0.77;0.77;;;;;;;23.33;100.00;99916.47;6093905;23;20441;-91
2023/07/15 06:13:36;;;;;;;0.73;0.43;;;;;;;23.41;100.00;99894.78;6118040;23;20028;-91
2023/07/15 06:16:02;;;;;;;1.45;0.90;;;;;;;23.36;100.00;99898.44;6117087;23;20029;-91
2023/07/15 06:18:28;;;;;;;1.20;1.15;;;;;;;23.51;100.00;99883.91;6119443;23;20369;-93
2023/07/15 06:20:53;;;;;;;1.23;1.13;;;;;;;23.87;100.00;99902.28;6115678;23;20022;-91
2023/07/15 06:23:19;;;;;;;1.42;1.33;;;;;;;24.05;100.00;99907.25;6119225;23;20018;-91
2023/07/15 06:25:44;;;;;;;0.47;0.47;;;;;;;24.25;100.00;99893.88;6116585;23;20050;-91
2023/07/15 06:28:10;;;;;;;0.30;0.30;;;;;;;24.58;100.00;99899.09;6093533;23;20099;-92
2023/07/15 06:30:35;;;;;;;0.80;0.80;;;;;;;24.86;100.00;99899.47;6092087;23;20377;-92
2023/07/15 06:33:01;;;;;;;1.13;1.05;;;;;;;24.78;100.00;99915.56;6118691;23;20444;-91
2023/07/15 06:35:26;;;;;;;0.90;0.90;;;;;;;24.77;100.00;99916.09;6116647;23;20037;-91
2023/07/15 06:37:52;;;;;;;0.88;0.88;;;;;;;25.00;100.00;99906.72;6117146;23;20014;-91
2023/07/15 06:40:18;;;;;;;0.47;0.47;;;;;;;25.46;100.00;99922.47;6095350;23;20510;-92
2023/07/15 06:42:44;;;;;;;1.17;1.08;;;;;;;25.47;100.00;99926.09;6095713;23;20021;-91
2023/07/15 06:45:11;;;;;;;1.00;0.95;;;;;;;25.63;100.00;99907.25;6095799;23;20010;-91
2023/07/15 06:47:37;;;;;;;0.80;0.80;;;;;;;25.90;100.00;99914.44;6120054;23;20399;-91
2023/07/15 06:50:03;;;;;;;0.80;0.68;;;;;;;25.98;100.00;99907.56;6093494;23;20025;-91
2023/07/15 06:52:28;;;;;;;0.35;0.35;;;;;;;26.21;100.00;99904.28;6095717;23;20014;-91
2023/07/15 06:54:54;;;;;;;1.10;0.98;;;;;;;26.33;100.00;99911.25;6095819;23;20021;-91
2023/07/15 06:57:19;;;;;;;1.08;0.85;;;;;;;26.42;100.00;99907.97;6072073;23;20063;-94
2023/07/15 06:59:45;;;;;;;2.20;0.80;;;;;;;26.61;100.00;99914.25;6095400;23;20088;-91
2023/07/15 07:02:11;;;;;;;0.60;0.60;;;;;;;26.72;100.00;99914.03;6070439;23;20206;-92
2023/07/15 07:04:37;;;;;;;0.90;0.73;;;;;;;26.96;100.00;99929.28;6092573;23;20474;-93
2023/07/15 07:07:02;;;;;;;0.60;0.60;;;;;;;26.89;100.00;99916.50;6095020;23;20017;-91
2023/07/15 07:09:28;;;;;;;0.73;0.52;;;;;;;27.18;98.84;99909.56;6070095;23;20018;-91
2023/07/15 07:11:53;;;;;;;0.60;0.60;;;;;;;27.18;98.07;99911.66;6094392;23;20029;-91
2023/07/15 07:14:22;;;;;;;0.57;0.57;;;;;;;27.20;96.31;99906.19;6094068;23;20527;-92
2023/07/15 07:16:48;;;;;;;0.57;0.57;;;;;;;27.10;95.62;99919.34;6093757;23;20041;-92
2023/07/15 07:19:13;;;;;;;0.43;0.43;;;;;;;27.11;96.20;99929.44;6069954;23;20089;-91
2023/07/15 07:21:39;;;;;;;1.08;1.00;;;;;;;27.31;98.45;99915.19;6069283;23;20013;-93
2023/07/15 07:24:05;;;;;;;0.75;0.50;;;;;;;27.46;94.20;99900.31;6044935;23;20029;-92
2023/07/15 07:26:30;;;;;;;2.05;0.55;;;;;;;27.65;93.03;99931.44;6093148;23;20458;-91
2023/07/15 07:28:56;;;;;;;0.47;0.47;;;;;;;27.76;94.29;99928.28;6094042;23;20523;-90
2023/07/15 07:31:22;;;;;;;1.10;0.77;;;;;;;27.83;92.01;99934.03;6093174;23;20021;-91
2023/07/15 07:33:47;;;;;;;0.65;0.50;;;;;;;28.14;90.33;99925.72;6091263;23;20631;-93
2023/07/15 07:36:13;;;;;;;0.70;0.70;;;;;;;28.25;87.76;99926.16;6067484;23;20012;-94
2023/07/15 07:38:39;;;;;;;0.95;0.57;;;;;;;28.54;85.83;99926.84;6047079;23;20014;-93
2023/07/15 07:41:09;;;;;;;0.85;0.85;;;;;;;28.45;82.32;99929.47;6071594;23;20072;-93
2023/07/15 07:43:35;;;;;;;1.50;1.02;;;;;;;28.45;85.02;99935.94;6095690;23;20025;-93
2023/07/15 07:46:02;;;;;;;0.30;0.30;;;;;;;28.69;85.08;99926.16;6094565;23;20010;-92
2023/07/15 07:48:28;;;;;;;1.20;0.85;;;;;;;28.47;82.98;99929.69;6069980;23;20014;-92
2023/07/15 07:50:54;;;;;;;1.00;0.82;;;;;;;28.20;86.76;99912.06;6068541;23;20134;-92
2023/07/15 07:53:20;;;;;;;0.30;0.30;;;;;;;28.68;87.54;99936.78;6092628;23;20366;-95
2023/07/15 07:55:45;;;;;;;1.58;1.17;;;;;;;29.01;86.47;99934.22;6070271;23;20002;-93
2023/07/15 07:58:11;;;;;;;0.90;0.90;;;;;;;29.33;79.37;99931.63;6068628;23;20037;-92
2023/07/15 08:00:37;;;;;;;0.82;0.82;;;;;;;29.56;78.90;99931.66;6092854;23;20006;-92
2023/07/15 08:03:02;;;;;;;1.33;1.10;;;;;;;29.50;79.47;99911.84;6069130;23;20019;-93
2023/07/15 08:05:28;;;;;;;0.98;0.88;;;;;;;29.47;77.42;99924.41;6069416;23;20064;-93
2023/07/15 08:07:54;;;;;;;0.82;0.82;;;;;;;29.47;76.48;99921.56;6047300;23;20013;-92
2023/07/15 08:10:19;;;;;;;1.50;0.95;;;;;;;29.21;80.62;99919.03;6046312;23;20014;-93
2023/07/15 08:12:45;;;;;;;1.15;1.05;;;;;;;29.20;78.27;99912.56;6071846;23;20355;-93
2023/07/15 08:15:11;;;;;;;0.30;0.30;;;;;;;29.37;79.77;99900.59;6071226;23;20018;-92
2023/07/15 08:17:36;;;;;;;0.73;0.73;;;;;;;29.81;78.22;99912.56;6094989;23;20345;-92
2023/07/15 08:20:03;;;;;;;1.75;0.75;;;;;;;30.05;71.11;99914.81;6069683;23;20389;-92
2023/07/15 08:22:28;;;;;;;0.68;0.68;;;;;;;30.01;72.13;99919.41;6119980;23;20013;-93
2023/07/15 08:24:54;;;;;;;1.35;0.70;;;;;;;29.83;74.13;99918.47;6094529;23;20022;-92
2023/07/15 08:27:20;;;;;;;1.10;0.85;;;;;;;30.10;72.15;99927.38;6120861;23;20435;-92
2023/07/15 08:29:46;;;;;;;0.70;0.70;;;;;;;29.90;72.86;99908.38;6095331;23;20010;-92
2023/07/15 08:32:12;;;;;;;1.20;0.98;;;;;;;30.03;72.19;99922.47;6094392;23;20016;-92
2023/07/15 08:34:37;;;;;;;2.15;0.50;;;;;;;30.08;72.87;99927.22;6093826;23;20010;-93
2023/07/15 08:37:03;;;;;;;1.23;0.80;;;;;;;30.25;72.12;99921.63;6121031;23;20016;-93
2023/07/15 08:39:28;;;;;;;0.35;0.35;;;;;;;30.00;72.53;99921.53;6121100;23;20044;-92
2023/07/15 08:41:55;;;;;;;2.72;0.90;;;;;;;29.99;72.83;99924.94;6122850;23;20018;-95
2023/07/15 08:44:21;;;;;;;2.08;1.05;;;;;;;30.10;72.19;99910.22;6095649;23;20024;-95
2023/07/15 08:46:47;;;;;;;0.60;0.60;;;;;;;30.53;71.04;99923.47;6096309;23;20018;-95
2023/07/15 08:49:13;;;;;;;0.63;0.63;;;;;;;30.77;67.46;99919.91;6094605;23;20093;-95
2023/07/15 08:51:39;;;;;;;1.27;0.98;;;;;;;30.95;67.73;99909.28;6096567;23;20068;-92
2023/07/15 08:54:06;;;;;;;1.15;0.82;;;;;;;30.87;65.79;99906.47;6118821;23;20348;-92
2023/07/15 08:56:34;;;;;;;0.40;0.38;;;;;;;30.77;66.63;99913.41;6119719;23;20006;-92
2023/07/15 08:59:01;;;;;;;0.95;0.60;;;;;;;30.60;67.68;99921.91;6094688;23;20088;-93
2023/07/15 09:01:27;;;;;;;0.40;0.40;;;;;;;30.29;67.88;99916.25;6095500;23;20065;-93
2023/07/15 09:03:53;;;;;;;0.63;0.63;;;;;;;30.63;70.20;99915.00;6070234;23;20018;-92
2023/07/15 09:06:18;;;;;;;0.85;0.73;;;;;;;30.81;66.31;99919.50;6094805;23;20045;-91
2023/07/15 09:08:50;;;;;;;0.52;0.52;;;;;;;30.60;65.50;99907.59;6095126;23;20017;-93
2023/07/15 09:11:15;;;;;;;0.47;0.47;;;;;;;30.49;69.10;99920.97;6119410;23;20010;-92
2023/07/15 09:13:42;;;;;;;0.55;0.43;;;;;;;30.84;70.59;99921.97;6119960;23;20029;-92
2023/07/15 09:16:08;;;;;;;0.95;0.77;;;;;;;30.99;66.28;99910.44;6120353;23;20017;-93
2023/07/15 09:18:39;;;;;;;0.65;0.65;;;;;;;30.88;65.92;99930.16;6094565;23;20006;-93
2023/07/15 09:21:10;;;;;;;1.55;0.50;;;;;;;31.21;65.11;99917.34;6094468;23;20029;-92
2023/07/15 09:23:41;;;;;;;0.30;0.30;;;;;;;31.15;63.14;99901.72;6095331;23;20025;-92
2023/07/15 09:26:06;;;;;;;0.70;0.70;;;;;;;31.61;61.84;99919.34;6094382;23;20006;-93
2023/07/15 09:28:32;;;;;;;0.60;0.60;;;;;;;31.93;59.87;99914.25;6119379;23;20017;-93
2023/07/15 09:31:00;;;;;;;0.32;0.32;;;;;;;31.38;60.62;99911.66;6118770;23;20114;-93
2023/07/15 09:33:29;;;;;;;1.23;1.13;;;;;;;30.87;64.53;99928.63;6118626;23;20349;-93
2023/07/15 09:35:55;;;;;;;0.57;0.57;;;;;;;30.75;65.08;99919.72;6093901;23;20069;-92
2023/07/15 09:38:21;;;;;;;0.98;0.88;;;;;;;30.78;66.31;99923.50;6096109;23;20010;-94
2023/07/15 09:40:46;;;;;;;0.45;0.45;;;;;;;30.94;63.97;99922.06;6096587;23;20025;-94
2023/07/15 09:43:12;;;;;;;0.68;0.68;;;;;;;31.47;64.43;99921.72;6047783;23;20022;-94
2023/07/15 09:45:40;;;;;;;0.47;0.47;;;;;;;31.76;60.75;99922.06;6071941;23;20142;-94
2023/07/15 09:48:10;;;;;;;1.15;1.05;;;;;;;31.71;59.63;99925.91;6097446;23;20456;-94
2023/07/15 09:50:38;;;;;;;1.17;1.08;;;;;;;31.94;60.13;99912.13;6097528;23;20017;-94
2023/07/15 09:53:04;;;;;;;0.40;0.40;;;;;;;32.24;57.31;99911.03;6121457;23;20005;-95
2023/07/15 09:55:31;;;;;;;1.20;1.10;;;;;;;32.33;56.78;99914.00;6123414;23;20045;-93
2023/07/15 09:58:16;;;;;;;2.05;1.08;;;;;;;32.39;55.26;99916.63;6073945;23;20010;-95
2023/07/15 10:00:46;;;;;;;0.88;0.82;;;;;;;32.57;53.33;99920.19;6120362;23;20018;-93
2023/07/15 10:03:20;;;;;;;0.93;0.93;;;;;;;32.32;53.12;99926.06;6097285;23;20088;-94
2023/07/15 10:05:47;;;;;;;1.27;0.80;;;;;;;32.21;54.92;99929.44;6097749;23;20048;-94
2023/07/15 10:08:13;;;;;;;1.25;0.82;;;;;;;31.98;56.47;99898.13;6075313;23;20018;-94
2023/07/15 10:10:40;;;;;;;0.88;0.75;;;;;;;32.39;55.97;99911.63;6096197;23;20017;-95
2023/07/15 10:13:06;;;;;;;0.40;0.40;;;;;;;32.64;55.38;99920.13;6120741;23;20036;-93
2023/07/15 10:15:32;;;;;;;0.50;0.50;;;;;;;33.03;52.87;99932.63;6097395;23;20045;-96
2023/07/15 10:18:10;;;;;;;0.40;0.40;;;;;;;33.03;50.58;99920.34;6098394;23;20014;-94
2023/07/15 10:20:36;;;;;;;0.20;0.20;;;;;;;33.49;49.85;99924.03;6097178;23;20109;-94
2023/07/15 10:23:02;;;;;;;1.45;0.68;;;;;;;33.13;51.26;99933.44;6097577;23;20365;-94
2023/07/15 10:25:27;;;;;;;0.30;0.30;;;;;;;32.90;53.40;99932.22;6072206;23;20020;-95
2023/07/15 10:28:12;;;;;;;5.65;0.98;;;;;;;33.22;52.99;99931.97;6073726;23;20084;-94
2023/07/15 10:30:38;;;;;;;0.50;0.50;;;;;;;33.42;50.37;99916.31;6096861;23;20022;-93
2023/07/15 10:33:03;;;;;;;0.50;0.45;;;;;;;33.32;50.26;99929.13;6122458;23;20508;-94
2023/07/15 10:35:34;;;;;;;0.50;0.50;;;;;;;32.60;52.37;99908.28;6123247;23;20014;-94
2023/07/15 10:38:25;;;;;;;1.15;1.05;;;;;;;33.13;50.57;99933.44;6097036;23;20022;-94
2023/07/15 10:41:02;;;;;;;0.98;0.95;;;;;;;33.46;49.09;99927.38;6121415;23;20021;-93
2023/07/15 10:43:34;;;;;;;0.93;0.93;;;;;;;33.50;49.27;99925.56;6121316;23;20068;-94
2023/07/15 10:46:02;;;;;;;0.50;0.50;;;;;;;33.48;48.61;99916.78;6120315;23;20550;-95
2023/07/15 10:48:28;;;;;;;0.77;0.63;;;;;;;33.58;49.30;99913.94;6096899;23;20017;-94
2023/07/15 10:50:55;;;;;;;0.80;0.80;;;;;;;33.68;48.51;99904.00;6073027;23;20109;-94
2023/07/15 10:53:29;;;;;;;0.50;0.50;;;;;;;33.92;46.97;99933.09;6121362;23;20018;-94
2023/07/15 10:55:57;;;;;;;1.38;0.85;;;;;;;33.32;48.92;99906.91;6074127;23;20328;-94
2023/07/15 10:58:23;;;;;;;0.68;0.68;;;;;;;33.38;47.96;99939.00;6122747;23;20511;-93
2023/07/15 11:00:49;;;;;;;0.60;0.60;;;;;;;33.66;48.30;99918.22;6097247;23;20470;-94
2023/07/15 11:03:16;;;;;;;2.10;0.88;;;;;;;33.69;47.71;99904.75;6122685;23;20034;-92
2023/07/15 11:05:45;;;;;;;0.90;0.70;;;;;;;33.81;47.89;99899.19;6118933;23;20098;-93
2023/07/15 11:08:10;;;;;;;0.52;0.52;;;;;;;33.69;46.09;99898.97;6120169;23;20018;-92
2023/07/15 11:10:36;;;;;;;1.00;0.82;;;;;;;33.25;46.45;99916.38;6120684;23;20085;-92
2023/07/15 11:13:17;;;;;;;2.30;1.25;;;;;;;32.92;48.86;99918.78;6121432;23;20444;-92
2023/07/15 11:15:46;;;;;;;1.20;0.98;;;;;;;33.18;47.94;99908.66;6096413;23;20014;-93
2023/07/15 11:18:16;;;;;;;0.80;0.80;;;;;;;33.34;47.64;99906.28;6096045;23;20068;-94
2023/07/15 11:20:44;;;;;;;1.25;0.90;;;;;;;33.11;48.02;99907.41;6095780;23;20014;-94
2023/07/15 11:23:10;;;;;;;0.77;0.77;;;;;;;33.12;47.51;99891.66;6121015;23;20018;-94
2023/07/15 11:25:36;;;;;;;0.63;0.63;;;;;;;33.25;47.56;99891.28;6120797;23;20018;-94
2023/07/15 11:28:02;;;;;;;0.60;0.60;;;;;;;33.13;46.84;99913.31;6120786;23;20144;-94
2023/07/15 11:30:40;;;;;;;1.30;1.20;;;;;;;33.09;47.01;99901.47;6095952;23;20464;-94